Time;durP1;ratioP1;P1;durP2;ratioP2;P2;SDS_P1;SDS_P2;PMS_P1;PMS_P2;Temp;Humidity;BMP_temperature;BMP_pressure;BME280_temperature;BME280_humidity;BME280_pressure;Samples;Min_cycle;Max_cycle;Signal;HPM_P1;HPM_P2
2022/05/31 00:01:44;;;;;;;6.35;2.00;;;15.30;99.90;;;;;;4193962;28;20093;-50
2022/05/31 00:04:06;;;;;;;4.50;1.77;;;15.20;99.90;;;;;;4194314;28;20105;-48
2022/05/31 00:06:27;;;;;;;5.88;2.05;;;15.20;99.90;;;;;;4192688;28;20046;-49
2022/05/31 00:08:47;;;;;;;2.28;1.73;;;15.20;99.90;;;;;;4193860;28;20055;-47
2022/05/31 00:11:08;;;;;;;5.15;1.58;;;15.20;99.90;;;;;;4190144;28;20052;-50
2022/05/31 00:13:29;;;;;;;4.72;1.33;;;15.30;99.90;;;;;;4177447;28;20477;-47
2022/05/31 00:15:50;;;;;;;6.25;1.65;;;15.20;99.90;;;;;;4177400;28;20094;-48
2022/05/31 00:18:13;;;;;;;5.70;1.80;;;15.30;99.90;;;;;;4188409;28;20151;-47
2022/05/31 00:20:33;;;;;;;2.67;1.45;;;15.30;99.90;;;;;;4193824;28;20052;-49
2022/05/31 00:22:54;;;;;;;5.32;1.75;;;15.20;99.90;;;;;;4193564;28;20055;-49
2022/05/31 00:25:16;;;;;;;4.18;2.05;;;15.20;99.90;;;;;;4193358;28;20515;-48
2022/05/31 00:27:37;;;;;;;7.40;2.00;;;15.20;99.90;;;;;;4193332;28;20118;-49
2022/05/31 00:30:07;;;;;;;1.98;1.55;;;15.20;99.90;;;;;;4193550;28;20056;-48
2022/05/31 00:32:32;;;;;;;1.63;1.42;;;15.20;99.90;;;;;;4194223;28;20044;-45
2022/05/31 00:34:55;;;;;;;7.47;1.45;;;15.20;99.90;;;;;;4193968;28;20083;-46
2022/05/31 00:37:19;;;;;;;4.45;1.48;;;15.20;99.90;;;;;;4193608;28;20048;-46
2022/05/31 00:39:40;;;;;;;5.75;2.00;;;15.20;99.90;;;;;;4193707;28;20090;-47
2022/05/31 00:42:10;;;;;;;7.03;1.40;;;15.10;99.90;;;;;;4193715;28;20172;-46
2022/05/31 00:44:32;;;;;;;1.50;1.40;;;15.10;99.90;;;;;;4188577;28;20534;-47
2022/05/31 00:47:07;;;;;;;2.25;1.33;;;15.10;99.90;;;;;;4193637;28;20476;-48
2022/05/31 00:49:38;;;;;;;4.18;1.70;;;15.10;99.90;;;;;;4195955;28;20110;-49
2022/05/31 00:52:07;;;;;;;2.35;1.33;;;15.00;99.90;;;;;;4193508;28;20063;-46
2022/05/31 00:54:32;;;;;;;15.45;3.85;;;14.80;99.90;;;;;;4180049;28;20056;-47
2022/05/31 00:56:54;;;;;;;11.55;2.85;;;14.80;99.90;;;;;;4193710;28;20046;-49
2022/05/31 00:59:19;;;;;;;3.50;3.20;;;14.80;99.90;;;;;;4194557;28;20167;-48
2022/05/31 01:01:43;;;;;;;9.30;3.97;;;14.90;99.90;;;;;;4196060;28;20052;-47
2022/05/31 01:04:05;;;;;;;4.10;2.47;;;14.90;99.90;;;;;;4196700;28;20415;-47
2022/05/31 01:06:27;;;;;;;7.88;2.95;;;15.00;99.90;;;;;;4196044;28;20135;-47
2022/05/31 01:08:48;;;;;;;2.67;2.47;;;15.00;99.90;;;;;;4196418;28;20051;-49
2022/05/31 01:11:09;;;;;;;44.13;3.05;;;15.00;99.90;;;;;;4192738;28;20044;-49
2022/05/31 01:13:30;;;;;;;19.00;2.60;;;15.00;99.90;;;;;;4180054;28;20055;-48
2022/05/31 01:16:03;;;;;;;20.42;2.17;;;14.90;99.90;;;;;;4179639;28;20072;-48
2022/05/31 01:18:23;;;;;;;13.18;3.35;;;14.80;99.90;;;;;;4179879;28;20139;-48
2022/05/31 01:20:44;;;;;;;15.90;3.92;;;14.80;99.90;;;;;;4179546;28;20055;-48
2022/05/31 01:23:13;;;;;;;6.60;4.15;;;14.90;99.90;;;;;;4179790;28;20056;-48
2022/05/31 01:26:09;;;;;;;45.22;4.55;;;15.00;99.90;;;;;;4179819;28;20432;-47
2022/05/31 01:29:05;;;;;;;5.88;3.92;;;15.00;99.90;;;;;;4178945;28;20511;-48
2022/05/31 01:31:41;;;;;;;27.92;4.55;;;15.10;99.90;;;;;;4179369;28;20055;-48
2022/05/31 01:34:05;;;;;;;24.77;4.60;;;15.10;99.90;;;;;;4179234;28;20288;-49
2022/05/31 01:36:33;;;;;;;19.67;4.00;;;15.00;99.90;;;;;;4179297;28;20408;-46
2022/05/31 01:39:04;;;;;;;12.10;3.95;;;15.10;99.90;;;;;;4179429;28;20060;-48
2022/05/31 01:41:46;;;;;;;6.43;3.85;;;15.10;99.90;;;;;;4194071;28;20083;-47
2022/05/31 01:44:11;;;;;;;7.10;2.60;;;15.10;99.90;;;;;;4184699;28;20114;-47
2022/05/31 01:46:34;;;;;;;57.72;4.97;;;15.10;99.90;;;;;;4179367;28;20142;-47
2022/05/31 01:48:56;;;;;;;124.80;8.50;;;15.10;99.90;;;;;;4179194;28;20059;-49
2022/05/31 01:51:17;;;;;;;37.88;4.53;;;15.00;99.90;;;;;;4179333;28;20099;-47
2022/05/31 01:53:39;;;;;;;14.55;3.38;;;15.00;99.90;;;;;;4179294;28;20084;-48
2022/05/31 01:56:03;;;;;;;4.78;4.47;;;15.00;99.90;;;;;;4190105;28;20066;-50
2022/05/31 01:58:30;;;;;;;3.33;2.67;;;15.10;99.90;;;;;;4195670;28;20146;-47
2022/05/31 02:00:51;;;;;;;8.95;3.05;;;15.20;99.90;;;;;;4195338;28;20061;-47
2022/05/31 02:03:16;;;;;;;6.93;2.38;;;15.30;99.90;;;;;;4179350;28;20079;-48
2022/05/31 02:05:44;;;;;;;7.85;2.25;;;15.20;99.90;;;;;;4190209;28;20059;-49
2022/05/31 02:08:05;;;;;;;6.88;2.75;;;15.10;99.90;;;;;;4195424;28;20047;-47
2022/05/31 02:10:27;;;;;;;8.00;2.97;;;15.10;99.90;;;;;;4195448;28;20488;-47
2022/05/31 02:12:48;;;;;;;17.17;3.78;;;15.10;99.90;;;;;;4179048;28;20052;-48
2022/05/31 02:15:09;;;;;;;77.00;5.15;;;15.10;99.90;;;;;;4189568;28;20135;-48
2022/05/31 02:17:30;;;;;;;11.85;3.03;;;14.90;99.90;;;;;;4193599;28;20056;-51
2022/05/31 02:19:51;;;;;;;11.07;3.60;;;14.90;99.90;;;;;;4195097;28;20051;-48
2022/05/31 02:22:15;;;;;;;35.60;3.80;;;15.00;99.90;;;;;;4178481;28;20076;-47
2022/05/31 02:24:36;;;;;;;24.98;3.67;;;14.90;99.90;;;;;;4189487;28;20111;-49
2022/05/31 02:26:57;;;;;;;7.78;3.78;;;14.80;99.90;;;;;;4194879;28;20470;-48
2022/05/31 02:29:21;;;;;;;30.30;3.03;;;14.80;99.90;;;;;;4195459;28;20572;-47
2022/05/31 02:31:42;;;;;;;13.23;2.78;;;14.80;99.90;;;;;;4194903;28;20106;-49
2022/05/31 02:34:06;;;;;;;7.72;3.67;;;14.80;99.90;;;;;;4194661;28;20055;-48
2022/05/31 02:36:27;;;;;;;5.75;3.30;;;14.80;99.90;;;;;;4194566;28;20570;-51
2022/05/31 02:38:48;;;;;;;5.40;3.33;;;14.80;99.90;;;;;;4195290;28;20059;-48
2022/05/31 02:41:08;;;;;;;4.82;2.70;;;14.80;99.90;;;;;;4194973;28;20056;-49
2022/05/31 02:43:29;;;;;;;4.00;3.70;;;14.70;99.90;;;;;;4194732;28;20131;-46
2022/05/31 02:45:50;;;;;;;6.47;3.88;;;14.70;99.90;;;;;;4193527;28;20546;-46
2022/05/31 02:48:11;;;;;;;3.90;3.53;;;14.70;99.90;;;;;;4194917;28;20067;-49
2022/05/31 02:50:31;;;;;;;6.35;3.78;;;14.70;99.90;;;;;;4195001;28;20419;-48
2022/05/31 02:52:52;;;;;;;4.72;3.20;;;14.80;99.90;;;;;;4194264;28;20090;-47
2022/05/31 02:55:13;;;;;;;5.35;2.97;;;14.90;99.90;;;;;;4194659;28;20124;-47
2022/05/31 02:57:34;;;;;;;3.80;2.45;;;15.00;99.90;;;;;;4178151;28;20146;-48
2022/05/31 02:59:58;;;;;;;12.45;4.30;;;14.90;99.90;;;;;;4189894;28;20464;-47
2022/05/31 03:02:19;;;;;;;2.38;2.28;;;14.80;99.90;;;;;;4194309;28;20059;-49
2022/05/31 03:04:40;;;;;;;4.60;2.80;;;14.80;99.90;;;;;;4193588;28;20067;-49
2022/05/31 03:07:03;;;;;;;4.85;3.03;;;14.80;99.90;;;;;;4178191;28;20459;-50
2022/05/31 03:09:24;;;;;;;3.60;3.10;;;14.80;99.90;;;;;;4194325;28;20051;-49
2022/05/31 03:11:50;;;;;;;11.38;2.67;;;14.80;99.90;;;;;;4194519;28;20051;-50
2022/05/31 03:14:22;;;;;;;3.92;3.33;;;14.80;99.90;;;;;;4193233;28;20079;-51
2022/05/31 03:16:48;;;;;;;13.27;4.80;;;14.80;99.90;;;;;;4194127;28;20109;-49
2022/05/31 03:19:16;;;;;;;14.27;3.25;;;14.90;99.90;;;;;;4189865;28;20288;-47
2022/05/31 03:21:44;;;;;;;6.45;2.88;;;14.80;99.90;;;;;;4194086;28;20379;-50
2022/05/31 03:24:16;;;;;;;4.05;2.70;;;14.70;99.90;;;;;;4194030;28;20507;-49
2022/05/31 03:26:40;;;;;;;6.88;4.53;;;14.70;99.90;;;;;;4194518;28;20059;-47
2022/05/31 03:29:03;;;;;;;3.75;3.08;;;14.70;99.90;;;;;;4193862;28;20055;-49
2022/05/31 03:31:24;;;;;;;5.30;2.95;;;14.80;99.90;;;;;;4194116;28;20483;-49
2022/05/31 03:33:45;;;;;;;9.43;3.90;;;14.90;99.90;;;;;;4193641;28;20145;-50
2022/05/31 03:36:06;;;;;;;5.45;3.47;;;14.80;99.90;;;;;;4194537;28;20101;-49
2022/05/31 03:38:27;;;;;;;7.90;3.05;;;14.70;99.90;;;;;;4193835;28;20060;-49
2022/05/31 03:40:57;;;;;;;3.58;2.45;;;14.80;99.90;;;;;;4193739;28;20074;-48
2022/05/31 03:43:17;;;;;;;4.82;3.42;;;14.80;99.90;;;;;;4193742;28;20114;-49
2022/05/31 03:45:42;;;;;;;3.08;2.80;;;14.80;99.90;;;;;;4193856;28;20148;-49
2022/05/31 03:48:03;;;;;;;9.38;3.42;;;14.70;99.90;;;;;;4193752;28;20124;-50
2022/05/31 03:50:24;;;;;;;3.08;2.63;;;14.80;99.90;;;;;;4193025;28;20123;-47
2022/05/31 03:52:45;;;;;;;2.97;2.50;;;14.70;99.90;;;;;;4194106;28;20042;-48
2022/05/31 03:55:06;;;;;;;4.45;1.90;;;14.70;99.90;;;;;;4194149;28;20114;-49
2022/05/31 03:57:27;;;;;;;4.75;2.25;;;14.70;99.90;;;;;;4193755;28;20105;-50
2022/05/31 03:59:48;;;;;;;5.97;2.38;;;14.70;99.90;;;;;;4193595;28;20382;-48
2022/05/31 04:02:09;;;;;;;2.97;2.40;;;14.70;99.90;;;;;;4194188;28;20110;-47
2022/05/31 04:04:30;;;;;;;6.45;2.35;;;14.70;99.90;;;;;;4176996;28;20059;-50
2022/05/31 04:06:50;;;;;;;5.82;2.33;;;14.60;99.90;;;;;;4188719;28;20261;-47
2022/05/31 04:09:11;;;;;;;8.43;2.22;;;14.50;99.90;;;;;;4181331;28;20071;-47
2022/05/31 04:11:32;;;;;;;2.65;2.45;;;14.50;99.90;;;;;;4193766;28;20128;-50
2022/05/31 04:13:54;;;;;;;5.90;2.50;;;14.40;99.90;;;;;;4176892;28;20051;-47
2022/05/31 04:16:16;;;;;;;9.40;2.88;;;14.30;99.90;;;;;;4187298;28;20051;-50
2022/05/31 04:18:43;;;;;;;4.45;2.75;;;14.30;99.90;;;;;;4192769;28;20051;-50
2022/05/31 04:21:06;;;;;;;2.72;2.63;;;14.30;99.90;;;;;;4193952;28;20055;-47
2022/05/31 04:26:21;;;;;;;4.03;1.65;;;14.40;99.90;;;;;;4189338;28;20583;-48
2022/05/31 04:28:43;;;;;;;6.53;2.00;;;14.30;99.90;;;;;;4194032;28;20072;-48
2022/05/31 04:31:05;;;;;;;2.45;1.80;;;14.30;99.90;;;;;;4197072;28;20051;-48
2022/05/31 04:33:27;;;;;;;1.50;1.42;;;14.20;99.90;;;;;;4197094;28;20043;-49
2022/05/31 04:35:48;;;;;;;1.65;1.40;;;14.20;99.90;;;;;;4196719;28;20067;-48
2022/05/31 04:38:09;;;;;;;1.60;1.60;;;14.10;99.90;;;;;;4197165;28;20083;-50
2022/05/31 04:40:30;;;;;;;5.55;1.30;;;14.10;99.90;;;;;;4196801;28;20052;-49
2022/05/31 04:42:52;;;;;;;1.63;1.52;;;14.20;99.90;;;;;;4180854;28;20063;-48
2022/05/31 04:45:13;;;;;;;3.45;1.90;;;14.20;99.90;;;;;;4196733;28;20067;-47
2022/05/31 04:47:35;;;;;;;3.97;2.13;;;14.20;99.90;;;;;;4196477;28;20139;-49
2022/05/31 04:49:56;;;;;;;6.13;2.70;;;14.30;99.90;;;;;;4196868;28;20136;-50
2022/05/31 04:52:17;;;;;;;7.20;2.90;;;14.30;99.90;;;;;;4180144;28;20071;-49
2022/05/31 04:54:37;;;;;;;3.75;2.47;;;14.30;99.90;;;;;;4191145;28;20110;-48
2022/05/31 04:57:01;;;;;;;2.58;2.38;;;14.40;99.90;;;;;;4196546;28;20486;-49
2022/05/31 04:59:22;;;;;;;3.05;2.42;;;14.40;99.90;;;;;;4196629;28;20055;-49
2022/05/31 05:01:43;;;;;;;4.53;3.05;;;14.60;99.90;;;;;;4179925;28;20091;-48
2022/05/31 05:04:05;;;;;;;2.15;1.95;;;14.70;99.90;;;;;;4199971;28;20052;-47
2022/05/31 05:06:26;;;;;;;3.20;1.42;;;14.60;99.90;;;;;;4210158;28;20519;-49
2022/05/31 05:08:48;;;;;;;3.40;2.00;;;14.60;99.90;;;;;;4196408;28;20043;-51
2022/05/31 05:11:11;;;;;;;7.72;3.03;;;14.50;99.90;;;;;;4196681;28;20124;-48
2022/05/31 05:13:32;;;;;;;4.28;2.65;;;14.50;99.90;;;;;;4196231;28;20071;-50
2022/05/31 05:15:55;;;;;;;4.88;3.15;;;14.60;99.90;;;;;;4196336;28;20055;-48
2022/05/31 05:18:15;;;;;;;4.77;2.10;;;14.50;99.90;;;;;;4195577;28;20605;-51
2022/05/31 05:20:39;;;;;;;2.60;2.40;;;14.50;99.90;;;;;;4195824;28;20436;-50
2022/05/31 05:23:02;;;;;;;5.97;2.40;;;14.50;99.90;;;;;;4196111;28;20102;-46
2022/05/31 05:25:23;;;;;;;6.50;1.90;;;14.60;99.90;;;;;;4195700;28;20051;-45
2022/05/31 05:27:43;;;;;;;2.63;1.63;;;14.60;99.90;;;;;;4196359;28;20071;-46
2022/05/31 05:32:44;;;;;;;4.68;1.73;;;14.70;99.90;;;;;;4196276;28;20051;-46
2022/05/31 05:35:05;;;;;;;2.05;1.85;;;14.70;99.90;;;;;;4196417;28;20094;-48
2022/05/31 05:37:26;;;;;;;2.47;1.85;;;14.80;99.90;;;;;;4196626;28;20077;-46
2022/05/31 05:39:47;;;;;;;2.20;2.08;;;14.80;99.90;;;;;;4196230;28;20051;-46
2022/05/31 05:42:08;;;;;;;3.55;2.20;;;14.80;99.90;;;;;;4196292;28;20080;-46
2022/05/31 05:44:28;;;;;;;7.30;1.80;;;14.80;99.90;;;;;;4190562;28;20059;-47
2022/05/31 05:46:49;;;;;;;2.33;2.13;;;14.90;99.90;;;;;;4196396;28;20106;-44
2022/05/31 05:49:10;;;;;;;2.17;1.65;;;15.00;99.90;;;;;;4209523;28;20050;-46
2022/05/31 05:51:33;;;;;;;3.58;1.85;;;15.00;99.90;;;;;;4196277;28;20075;-46
2022/05/31 05:53:56;;;;;;;3.50;1.63;;;15.00;99.90;;;;;;4196347;28;20054;-45
2022/05/31 05:56:17;;;;;;;3.90;2.22;;;15.20;99.90;;;;;;4179619;28;20060;-47
2022/05/31 05:58:40;;;;;;;2.25;2.13;;;15.10;99.90;;;;;;4192525;28;20181;-46
2022/05/31 06:01:02;;;;;;;2.85;2.65;;;15.10;99.90;;;;;;4195281;28;20051;-46
2022/05/31 06:03:52;;;;;;;4.00;1.92;;;15.10;99.90;;;;;;4194663;28;20137;-47
2022/05/31 06:06:14;;;;;;;5.68;2.60;;;15.00;99.90;;;;;;4178952;28;20063;-45
2022/05/31 06:08:44;;;;;;;2.67;2.20;;;15.00;99.90;;;;;;4194761;28;20530;-45
2022/05/31 06:11:23;;;;;;;18.52;3.05;;;15.00;99.90;;;;;;4194244;28;20471;-46
2022/05/31 06:13:53;;;;;;;2.47;2.20;;;15.10;99.90;;;;;;4195859;28;20094;-48
2022/05/31 06:16:13;;;;;;;5.15;2.25;;;15.00;99.90;;;;;;4195406;28;20561;-46
2022/05/31 06:18:48;;;;;;;2.53;2.42;;;15.00;99.90;;;;;;4193290;28;20066;-47
2022/05/31 06:21:10;;;;;;;5.78;2.45;;;15.10;99.90;;;;;;4194992;28;20541;-50
2022/05/31 06:23:31;;;;;;;2.28;2.17;;;15.10;99.90;;;;;;4195104;28;20056;-47
2022/05/31 06:25:52;;;;;;;3.67;1.95;;;15.10;99.90;;;;;;4195261;28;20470;-45
2022/05/31 06:28:13;;;;;;;3.70;2.75;;;15.20;99.90;;;;;;4195246;28;20412;-45
2022/05/31 06:30:34;;;;;;;3.80;2.95;;;15.30;99.90;;;;;;4193853;28;20106;-46
2022/05/31 06:32:55;;;;;;;5.53;2.00;;;15.20;99.90;;;;;;4195193;28;20048;-47
2022/05/31 06:35:15;;;;;;;4.88;2.45;;;15.40;99.90;;;;;;4195312;28;20126;-45
2022/05/31 06:37:37;;;;;;;2.17;2.08;;;15.50;99.90;;;;;;4178447;28;20051;-46
2022/05/31 06:39:59;;;;;;;2.05;1.88;;;15.60;99.90;;;;;;4190204;28;20063;-48
2022/05/31 06:42:20;;;;;;;2.05;1.55;;;15.80;99.90;;;;;;4194763;28;20083;-45
2022/05/31 06:44:43;;;;;;;2.33;2.22;;;15.80;99.90;;;;;;4194551;28;20051;-45
2022/05/31 06:47:04;;;;;;;2.95;2.03;;;16.10;99.90;;;;;;4178167;28;20139;-46
2022/05/31 06:49:28;;;;;;;2.22;2.15;;;16.10;99.90;;;;;;4188849;28;20051;-45
2022/05/31 06:57:07;;;;;;;2.08;1.48;;;16.30;99.90;;;;;;4194763;28;20090;-44
2022/05/31 06:59:28;;;;;;;1.83;1.73;;;16.70;99.90;;;;;;4195013;28;20055;-45
2022/05/31 07:01:49;;;;;;;2.58;1.48;;;16.80;99.90;;;;;;4194342;28;20063;-45
2022/05/31 07:04:10;;;;;;;4.35;1.35;;;17.10;99.90;;;;;;4194701;28;20059;-47
2022/05/31 07:06:32;;;;;;;1.98;1.25;;;17.20;99.90;;;;;;4194377;28;20415;-46
2022/05/31 07:08:53;;;;;;;3.38;0.98;;;17.40;99.90;;;;;;4194167;28;20078;-46
2022/05/31 07:11:14;;;;;;;4.05;1.20;;;17.40;99.90;;;;;;4193155;28;20048;-45
2022/05/31 07:13:35;;;;;;;3.20;1.00;;;17.60;99.90;;;;;;4194329;28;20052;-46
2022/05/31 07:16:00;;;;;;;2.65;1.10;;;17.70;99.90;;;;;;4178011;28;20460;-45
2022/05/31 07:18:36;;;;;;;3.15;1.40;;;17.80;99.90;;;;;;4180027;28;20535;-46
2022/05/31 07:20:57;;;;;;;3.63;1.15;;;18.10;99.90;;;;;;4185263;28;20102;-46
2022/05/31 07:23:19;;;;;;;2.35;1.20;;;18.40;99.90;;;;;;4194043;28;20105;-44
2022/05/31 07:25:39;;;;;;;1.50;1.00;;;18.50;99.90;;;;;;4194554;28;20106;-46
2022/05/31 07:28:00;;;;;;;2.38;0.98;;;18.80;99.90;;;;;;4194380;28;20416;-47
2022/05/31 07:30:21;;;;;;;1.25;1.15;;;18.90;99.90;;;;;;4194196;28;20404;-46
2022/05/31 07:32:42;;;;;;;1.55;1.30;;;19.00;99.90;;;;;;4194101;28;20051;-48
2022/05/31 07:35:23;;;;;;;3.13;0.90;;;18.90;99.90;;;;;;4177895;28;20043;-46
2022/05/31 07:37:45;;;;;;;2.08;1.25;;;18.80;99.90;;;;;;4205731;28;20065;-47
2022/05/31 07:40:06;;;;;;;2.28;1.15;;;18.90;99.90;;;;;;4202734;28;20531;-46
2022/05/31 07:42:28;;;;;;;3.70;1.00;;;19.20;99.90;;;;;;4193681;28;20102;-47
2022/05/31 07:44:53;;;;;;;4.60;1.50;;;19.20;99.90;;;;;;4177395;28;20052;-46
2022/05/31 07:47:13;;;;;;;2.15;1.00;;;19.70;99.90;;;;;;4191437;28;20427;-49
2022/05/31 07:49:34;;;;;;;1.90;1.00;;;20.00;99.90;;;;;;4193815;28;20921;-47
2022/05/31 07:51:55;;;;;;;1.50;1.08;;;20.30;99.90;;;;;;4194171;28;20060;-47
2022/05/31 07:54:16;;;;;;;4.32;1.50;;;20.40;99.90;;;;;;4177686;28;20079;-46
2022/05/31 07:56:37;;;;;;;1.83;1.13;;;20.60;99.90;;;;;;4189577;28;20456;-46
2022/05/31 07:59:00;;;;;;;1.70;1.00;;;20.60;99.90;;;;;;4193704;28;20122;-45
2022/05/31 08:01:25;;;;;;;2.35;1.15;;;20.60;99.90;;;;;;4193684;28;20060;-46
2022/05/31 08:03:46;;;;;;;2.28;1.98;;;20.70;99.90;;;;;;4177235;28;20051;-46
2022/05/31 08:06:12;;;;;;;1.55;0.82;;;21.00;99.90;;;;;;4189045;28;20056;-46
2022/05/31 08:08:34;;;;;;;2.67;0.93;;;21.00;99.90;;;;;;4193283;28;20133;-47
2022/05/31 08:10:56;;;;;;;3.35;1.33;;;20.80;99.90;;;;;;4193559;28;20132;-45
2022/05/31 08:13:17;;;;;;;3.55;1.30;;;20.80;99.90;;;;;;4176260;28;20111;-47
2022/05/31 08:15:38;;;;;;;1.92;1.00;;;20.90;99.90;;;;;;4188288;28;20419;-46
2022/05/31 08:17:59;;;;;;;2.10;1.40;;;21.00;99.90;;;;;;4193069;28;20128;-48
2022/05/31 08:20:20;;;;;;;2.75;1.00;;;21.30;99.90;;;;;;4193730;28;20055;-46
2022/05/31 08:22:41;;;;;;;1.83;0.88;;;21.30;99.90;;;;;;4176001;28;20102;-47
2022/05/31 08:25:03;;;;;;;3.17;1.23;;;21.30;99.90;;;;;;4187378;28;20051;-46
2022/05/31 08:27:24;;;;;;;3.17;1.00;;;21.20;99.90;;;;;;4193351;28;20097;-46
2022/05/31 08:29:45;;;;;;;1.50;1.10;;;21.10;99.90;;;;;;4193636;28;20134;-47
2022/05/31 08:32:07;;;;;;;3.85;0.93;;;21.10;99.90;;;;;;4193368;28;20051;-45
2022/05/31 08:34:29;;;;;;;1.55;0.88;;;21.20;99.90;;;;;;4193301;28;20053;-45
2022/05/31 08:36:50;;;;;;;2.00;0.90;;;21.30;99.90;;;;;;4193324;28;20094;-46
2022/05/31 08:39:10;;;;;;;4.15;0.90;;;21.50;99.90;;;;;;4194191;28;20056;-48
2022/05/31 08:41:46;;;;;;;6.35;1.67;;;21.70;99.90;;;;;;4193222;28;20064;-45
2022/05/31 08:44:35;;;;;;;2.78;0.90;;;21.90;99.90;;;;;;4193676;28;20055;-46
2022/05/31 08:47:20;;;;;;;5.88;1.42;;;22.60;99.90;;;;;;4193173;28;20431;-46
2022/05/31 08:53:12;;;;;;;2.65;0.80;;;22.80;99.90;;;;;;4193415;28;20056;-45
2022/05/31 08:58:30;;;;;;;2.35;0.80;;;22.10;99.90;;;;;;4193321;28;20077;-45
2022/05/31 09:00:53;;;;;;;4.95;0.90;;;22.00;99.90;;;;;;4193779;28;20121;-45
2022/05/31 09:03:28;;;;;;;4.72;0.98;;;21.90;99.90;;;;;;4193208;28;20055;-46
2022/05/31 09:06:06;;;;;;;6.43;1.00;;;21.90;99.90;;;;;;4193646;28;20052;-45
2022/05/31 09:08:38;;;;;;;1.13;0.80;;;22.00;99.90;;;;;;4193402;28;20052;-47
2022/05/31 09:11:29;;;;;;;2.70;1.30;;;22.00;99.90;;;;;;4184650;28;20126;-46
2022/05/31 09:13:56;;;;;;;2.75;0.80;;;22.40;99.90;;;;;;4194417;28;20051;-45
2022/05/31 09:16:28;;;;;;;3.80;0.80;;;22.20;99.90;;;;;;4196229;28;20062;-45
2022/05/31 09:18:58;;;;;;;2.65;0.90;;;22.30;99.90;;;;;;4195643;28;20052;-45
2022/05/31 09:21:40;;;;;;;1.30;1.00;;;22.30;99.90;;;;;;4196440;28;20163;-46
2022/05/31 09:24:02;;;;;;;1.20;0.90;;;22.10;99.90;;;;;;4196252;28;20138;-49
2022/05/31 09:26:42;;;;;;;2.97;0.70;;;22.00;99.90;;;;;;4195620;28;20059;-46
2022/05/31 09:29:43;;;;;;;2.97;0.80;;;22.30;99.90;;;;;;4195776;28;20482;-47
2022/05/31 09:32:09;;;;;;;2.88;0.80;;;22.50;99.90;;;;;;4196231;28;20051;-44
2022/05/31 09:34:42;;;;;;;3.20;1.00;;;22.60;99.90;;;;;;4195933;28;20120;-47
2022/05/31 09:37:27;;;;;;;4.90;0.80;;;22.50;99.90;;;;;;4196354;28;20054;-46
2022/05/31 09:40:31;;;;;;;4.00;0.70;;;22.90;99.90;;;;;;4193540;28;20051;-45
2022/05/31 09:42:57;;;;;;;3.33;0.70;;;23.30;99.90;;;;;;4195653;28;20486;-46
2022/05/31 09:45:20;;;;;;;4.97;0.80;;;23.60;99.90;;;;;;4194964;28;20136;-46
2022/05/31 09:47:41;;;;;;;2.15;0.70;;;23.60;99.90;;;;;;4196178;28;20483;-45
2022/05/31 09:50:03;;;;;;;2.60;0.90;;;23.40;99.90;;;;;;4195033;28;20531;-47
2022/05/31 09:52:37;;;;;;;2.70;0.70;;;23.00;99.90;;;;;;4190786;28;20051;-46
2022/05/31 09:58:24;;;;;;;2.88;0.98;;;23.30;99.90;;;;;;4194985;28;20110;-46
2022/05/31 10:01:05;;;;;;;2.58;0.80;;;23.40;99.90;;;;;;4194908;28;20060;-47
2022/05/31 10:03:34;;;;;;;9.02;0.80;;;23.50;99.90;;;;;;4189510;28;20051;-45
2022/05/31 10:06:18;;;;;;;7.65;0.80;;;23.50;99.90;;;;;;4184756;28;20052;-45
2022/05/31 10:08:39;;;;;;;3.33;0.75;;;23.70;99.90;;;;;;4182632;28;20099;-46
2022/05/31 10:11:07;;;;;;;1.60;1.08;;;23.40;99.90;;;;;;4181578;28;20490;-46
2022/05/31 10:13:56;;;;;;;9.25;0.80;;;23.20;99.90;;;;;;4194062;28;20059;-45
2022/05/31 10:16:30;;;;;;;2.13;0.70;;;23.00;99.90;;;;;;4190461;28;20056;-45
2022/05/31 10:19:00;;;;;;;1.17;0.68;;;23.00;99.90;;;;;;4189833;28;20044;-47
2022/05/31 10:21:40;;;;;;;2.65;0.60;;;23.20;99.90;;;;;;4193084;28;20051;-46
2022/05/31 10:24:08;;;;;;;4.55;0.93;;;23.10;99.90;;;;;;4194523;28;20864;-46
2022/05/31 10:26:32;;;;;;;4.88;0.90;;;23.40;99.90;;;;;;4178142;28;20102;-46
2022/05/31 10:28:57;;;;;;;4.28;0.73;;;23.60;99.90;;;;;;4186057;28;20051;-49
2022/05/31 10:31:34;;;;;;;1.63;0.70;;;24.10;99.90;;;;;;4186527;28;20157;-48
2022/05/31 10:34:00;;;;;;;0.63;0.60;;;24.20;99.90;;;;;;4193009;28;20056;-45
2022/05/31 10:36:25;;;;;;;1.85;0.60;;;23.70;99.90;;;;;;4186583;28;20117;-45
2022/05/31 10:38:48;;;;;;;1.58;0.70;;;23.70;99.90;;;;;;4186943;28;20047;-46
2022/05/31 10:41:32;;;;;;;0.90;0.70;;;23.70;99.90;;;;;;4191516;28;20059;-46
2022/05/31 10:44:28;;;;;;;3.42;0.70;;;23.90;99.90;;;;;;4194778;28;20051;-47
2022/05/31 10:46:55;;;;;;;5.00;1.00;;;24.30;99.90;;;;;;4194923;28;20075;-45
2022/05/31 10:49:19;;;;;;;4.18;0.70;;;24.60;99.90;;;;;;4193817;28;20046;-45
2022/05/31 10:52:11;;;;;;;9.00;0.52;;;24.50;99.90;;;;;;4194714;28;20415;-45
2022/05/31 10:54:48;;;;;;;1.45;0.60;;;24.50;99.90;;;;;;4194968;28;20099;-47
2022/05/31 10:57:29;;;;;;;8.38;0.70;;;24.60;99.90;;;;;;4194652;28;20447;-44
2022/05/31 11:00:05;;;;;;;2.95;0.60;;;24.80;99.90;;;;;;4194918;28;20051;-45
2022/05/31 11:02:42;;;;;;;2.22;0.70;;;24.40;99.90;;;;;;4194546;28;20060;-46
2022/05/31 11:05:07;;;;;;;1.40;0.63;;;24.50;99.90;;;;;;4186530;28;20106;-44
2022/05/31 11:07:40;;;;;;;1.92;0.68;;;24.90;99.90;;;;;;4190929;28;20059;-46
2022/05/31 11:13:18;;;;;;;2.45;0.60;;;25.00;99.90;;;;;;4183387;28;20049;-46
2022/05/31 11:15:58;;;;;;;6.80;1.08;;;24.90;99.90;;;;;;4190815;28;20541;-45
2022/05/31 11:19:06;;;;;;;2.67;0.60;;;25.00;99.90;;;;;;4187211;28;20051;-46
2022/05/31 11:21:51;;;;;;;5.93;0.75;;;25.70;99.90;;;;;;4188613;28;20048;-46
2022/05/31 11:24:20;;;;;;;2.80;1.02;;;25.40;99.90;;;;;;4177764;28;20512;-47
2022/05/31 11:27:19;;;;;;;3.50;0.90;;;25.50;99.90;;;;;;4186863;28;20130;-45
2022/05/31 11:30:01;;;;;;;2.08;0.50;;;25.80;99.90;;;;;;4190838;28;20047;-47
2022/05/31 11:32:22;;;;;;;2.40;1.20;;;25.70;99.90;;;;;;4186682;28;20120;-45
2022/05/31 11:34:51;;;;;;;2.67;0.60;;;25.50;99.90;;;;;;4185130;28;20153;-48
2022/05/31 11:37:32;;;;;;;2.50;0.70;;;25.50;99.90;;;;;;4184072;28;20580;-46
2022/05/31 11:40:16;;;;;;;4.20;1.10;;;25.80;99.90;;;;;;4184575;28;20156;-46
2022/05/31 11:42:58;;;;;;;5.15;0.70;;;25.70;99.90;;;;;;4177437;28;20068;-46
2022/05/31 11:45:24;;;;;;;1.60;0.70;;;25.70;99.90;;;;;;4187202;28;20122;-44
2022/05/31 11:47:47;;;;;;;3.05;0.60;;;25.70;99.90;;;;;;4194185;28;20102;-46
2022/05/31 11:50:14;;;;;;;3.55;0.70;;;25.90;99.90;;;;;;4193013;28;20043;-44
2022/05/31 11:52:38;;;;;;;0.50;0.50;;;26.50;99.90;;;;;;4177413;28;20107;-45
2022/05/31 11:55:26;;;;;;;4.53;0.70;;;26.10;99.90;;;;;;4180541;28;20051;-44
2022/05/31 11:58:15;;;;;;;4.55;0.60;;;26.00;99.90;;;;;;4191072;28;20067;-45
2022/05/31 12:01:01;;;;;;;4.55;0.60;;;25.90;99.90;;;;;;4180799;28;20528;-46
2022/05/31 12:03:47;;;;;;;4.00;0.70;;;26.30;99.90;;;;;;4193647;28;20106;-44
2022/05/31 12:06:15;;;;;;;4.78;0.60;;;26.40;99.90;;;;;;4193670;28;20055;-43
2022/05/31 12:08:48;;;;;;;2.75;0.50;;;26.30;99.90;;;;;;4191018;28;20055;-44
2022/05/31 12:11:20;;;;;;;3.80;0.60;;;26.80;99.90;;;;;;4193340;28;20494;-46
2022/05/31 12:13:44;;;;;;;2.03;0.52;;;26.00;99.90;;;;;;4193865;28;20087;-44
2022/05/31 12:16:06;;;;;;;2.92;0.88;;;25.50;99.90;;;;;;4194008;28;20315;-45
2022/05/31 12:18:56;;;;;;;5.35;0.70;;;25.80;99.90;;;;;;4193036;28;20052;-48
2022/05/31 12:21:23;;;;;;;4.97;0.50;;;26.20;97.70;;;;;;4176187;28;20056;-45
2022/05/31 12:24:02;;;;;;;1.58;0.60;;;26.20;98.70;;;;;;4187910;28;20063;-45
2022/05/31 12:26:33;;;;;;;4.82;0.60;;;26.00;99.20;;;;;;4191020;28;20503;-46
2022/05/31 12:29:05;;;;;;;4.10;0.50;;;26.40;98.00;;;;;;4183681;28;20056;-43
2022/05/31 12:31:28;;;;;;;1.73;0.50;;;26.80;99.70;;;;;;4193727;28;20110;-50
2022/05/31 12:33:49;;;;;;;4.10;0.60;;;26.80;98.90;;;;;;4192547;28;20051;-48
2022/05/31 12:36:16;;;;;;;3.10;0.60;;;26.40;98.70;;;;;;4193227;28;20129;-47
2022/05/31 12:39:08;;;;;;;2.05;0.68;;;26.50;99.00;;;;;;4191259;28;20680;-48
2022/05/31 12:41:42;;;;;;;0.67;0.63;;;26.30;98.00;;;;;;4182886;28;20056;-47
2022/05/31 12:44:26;;;;;;;3.20;0.50;;;26.70;99.20;;;;;;4181791;28;20303;-47
2022/05/31 12:46:47;;;;;;;6.57;0.90;;;27.50;99.00;;;;;;4179372;28;20118;-47
2022/05/31 12:49:17;;;;;;;1.17;0.60;;;27.40;99.20;;;;;;4187443;28;20058;-48
2022/05/31 12:51:38;;;;;;;1.67;0.68;;;26.60;98.50;;;;;;4196102;28;20042;-48
2022/05/31 12:54:10;;;;;;;0.98;0.60;;;26.70;99.80;;;;;;4196707;28;20059;-48
2022/05/31 12:56:31;;;;;;;3.95;0.60;;;26.40;99.90;;;;;;4195317;28;20411;-47
2022/05/31 12:58:52;;;;;;;3.58;0.57;;;26.60;99.40;;;;;;4196400;28;20048;-47
2022/05/31 13:01:15;;;;;;;3.42;0.55;;;26.60;99.30;;;;;;4196433;28;20051;-50
2022/05/31 13:03:42;;;;;;;2.22;0.63;;;27.00;99.90;;;;;;4196427;28;20412;-48
2022/05/31 13:06:23;;;;;;;2.75;1.00;;;27.50;98.80;;;;;;4179967;28;20056;-47